createdAt,value
2022-12-31T00:01:52.854Z,99.99
2022-12-31T00:04:21.570Z,99.99
2022-12-31T00:06:50.410Z,99.99
2022-12-31T00:09:19.565Z,99.93
2022-12-31T00:11:47.773Z,99.78
2022-12-31T00:14:17.007Z,99.71
2022-12-31T00:16:47.392Z,99.94
2022-12-31T00:19:15.647Z,99.99
2022-12-31T00:21:45.292Z,99.99
2022-12-31T00:24:13.913Z,99.99
2022-12-31T00:26:42.095Z,99.99
2022-12-31T00:29:13.377Z,99.99
2022-12-31T00:31:42.703Z,99.99
2022-12-31T00:34:12.834Z,99.99
2022-12-31T00:36:46.098Z,99.98
2022-12-31T00:39:14.655Z,99.99
2022-12-31T00:41:44.168Z,99.99
2022-12-31T00:44:13.320Z,99.98
2022-12-31T00:49:09.228Z,99.99
2022-12-31T00:51:39.118Z,99.99
2022-12-31T00:54:10.695Z,99.99
2022-12-31T00:56:39.531Z,99.99
2022-12-31T00:59:08.060Z,99.99
2022-12-31T01:01:38.458Z,99.99
2022-12-31T01:04:09.267Z,99.98
2022-12-31T01:06:43.460Z,99.91
2022-12-31T01:09:12.564Z,99.95
2022-12-31T01:11:41.473Z,99.76
2022-12-31T01:14:11.758Z,99.68
2022-12-31T01:16:43.609Z,99.71
2022-12-31T01:19:13.704Z,99.55
2022-12-31T01:21:44.768Z,99.53
2022-12-31T01:24:13.297Z,99.64
2022-12-31T01:26:42.793Z,98.75
2022-12-31T01:29:13.934Z,99.85
2022-12-31T01:31:42.623Z,99.14
2022-12-31T01:34:11.420Z,99.85
2022-12-31T01:36:41.951Z,99.73
2022-12-31T01:39:13.180Z,99.99
2022-12-31T01:41:44.634Z,99.84
2022-12-31T01:44:50.560Z,99.99
2022-12-31T01:47:23.365Z,99.99
2022-12-31T01:50:00.039Z,99.99
2022-12-31T01:52:34.215Z,99.58
2022-12-31T01:55:08.855Z,99.99
2022-12-31T01:57:38.714Z,99.75
2022-12-31T02:00:10.222Z,99.98
2022-12-31T02:02:41.485Z,99.76
2022-12-31T02:05:18.472Z,99.99
2022-12-31T02:07:49.312Z,99.99
2022-12-31T02:10:20.181Z,99.99
2022-12-31T02:12:50.437Z,99.99
2022-12-31T02:15:21.009Z,99.99
2022-12-31T02:17:57.339Z,99.99
2022-12-31T02:20:43.202Z,99.99
2022-12-31T02:23:41.380Z,99.99
2022-12-31T02:26:42.676Z,99.99
2022-12-31T02:29:39.420Z,99.99
2022-12-31T02:32:15.209Z,99.99
2022-12-31T02:34:51.972Z,99.99
2022-12-31T02:37:23.923Z,99.99
2022-12-31T02:39:54.153Z,99.99
2022-12-31T02:42:23.751Z,99.99
2022-12-31T02:44:53.302Z,99.99
2022-12-31T02:47:34.969Z,99.99
2022-12-31T02:50:19.533Z,99.99
2022-12-31T02:52:58.837Z,99.99
2022-12-31T02:55:35.202Z,99.99
2022-12-31T02:58:13.901Z,99.99
2022-12-31T03:01:05.811Z,99.99
2022-12-31T03:03:38.872Z,99.99
2022-12-31T03:06:10.481Z,99.99
2022-12-31T03:08:57.498Z,99.99
2022-12-31T03:11:43.610Z,99.99
2022-12-31T03:14:12.851Z,99.80
2022-12-31T03:16:41.575Z,99.99
2022-12-31T03:19:29.102Z,99.99
2022-12-31T03:22:15.652Z,99.87
2022-12-31T03:25:01.682Z,99.78
2022-12-31T03:27:30.319Z,99.77
2022-12-31T03:29:58.967Z,99.99
2022-12-31T03:32:30.596Z,99.99
2022-12-31T03:35:00.784Z,99.99
2022-12-31T03:37:32.166Z,99.99
2022-12-31T03:40:03.055Z,99.99
2022-12-31T03:42:31.398Z,99.99
2022-12-31T03:45:01.246Z,99.99
2022-12-31T03:47:32.976Z,99.86
2022-12-31T03:50:06.584Z,99.94
2022-12-31T03:52:36.411Z,99.99
2022-12-31T03:55:05.352Z,99.93
2022-12-31T03:57:34.773Z,99.80
2022-12-31T04:00:03.646Z,99.65
2022-12-31T04:02:34.538Z,99.77
2022-12-31T04:05:05.287Z,99.56
2022-12-31T04:07:34.784Z,99.85
2022-12-31T04:10:03.988Z,99.87
2022-12-31T04:12:33.091Z,99.86
2022-12-31T04:15:01.574Z,99.83
2022-12-31T04:17:30.348Z,99.69
2022-12-31T04:19:58.732Z,99.76
2022-12-31T04:22:28.963Z,99.99
2022-12-31T04:24:57.180Z,99.99
2022-12-31T04:27:28.342Z,99.99
2022-12-31T04:29:56.906Z,99.99
2022-12-31T04:32:25.479Z,99.99
2022-12-31T04:34:53.885Z,99.97
2022-12-31T04:37:22.116Z,99.84
2022-12-31T04:39:52.201Z,99.99
2022-12-31T04:42:21.037Z,99.99
2022-12-31T04:44:49.542Z,99.99
2022-12-31T04:47:23.371Z,99.99
2022-12-31T04:49:52.815Z,99.99
2022-12-31T04:52:24.384Z,99.99
2022-12-31T04:54:54.151Z,99.99
2022-12-31T04:57:22.469Z,99.99
2022-12-31T04:59:55.977Z,99.99
2022-12-31T05:02:25.094Z,99.99
2022-12-31T05:04:53.899Z,99.99
2022-12-31T05:07:25.160Z,99.99
2022-12-31T05:09:57.865Z,99.99
2022-12-31T05:12:26.673Z,99.99
2022-12-31T05:14:54.971Z,99.99
2022-12-31T05:17:23.160Z,99.99
2022-12-31T05:19:51.706Z,99.99
2022-12-31T05:22:33.092Z,99.99
2022-12-31T05:25:04.058Z,99.99
2022-12-31T05:27:32.876Z,99.99
2022-12-31T05:30:01.475Z,99.99
2022-12-31T05:32:33.572Z,99.99
2022-12-31T05:35:06.273Z,99.99
2022-12-31T05:37:35.813Z,99.99
2022-12-31T05:40:06.777Z,99.99
2022-12-31T05:42:36.338Z,99.99
2022-12-31T05:45:04.779Z,99.99
2022-12-31T05:47:33.303Z,99.99
2022-12-31T05:50:02.220Z,99.99
2022-12-31T05:52:30.849Z,99.99
2022-12-31T05:55:00.214Z,99.99
2022-12-31T05:57:30.357Z,99.99
2022-12-31T05:59:59.477Z,99.99
2022-12-31T06:02:27.908Z,99.99
2022-12-31T06:05:01.461Z,99.99
2022-12-31T06:07:30.121Z,99.99
2022-12-31T06:09:58.662Z,99.99
2022-12-31T06:12:28.513Z,99.99
2022-12-31T06:15:00.194Z,99.99
2022-12-31T06:17:29.556Z,99.99
2022-12-31T06:19:58.560Z,99.99
2022-12-31T06:22:27.346Z,99.99
2022-12-31T06:24:56.142Z,99.99
2022-12-31T06:27:24.683Z,99.99
2022-12-31T06:29:53.060Z,99.99
2022-12-31T06:32:23.311Z,99.57
2022-12-31T06:34:51.753Z,99.99
2022-12-31T06:37:20.268Z,99.99
2022-12-31T06:39:49.360Z,99.99
2022-12-31T06:42:18.737Z,99.99
2022-12-31T06:44:47.096Z,99.74
2022-12-31T06:47:15.622Z,99.95
2022-12-31T06:49:45.764Z,99.99
2022-12-31T06:52:14.389Z,99.85
2022-12-31T06:54:45.665Z,99.76
2022-12-31T06:57:14.419Z,99.82
2022-12-31T06:59:45.020Z,99.63
2022-12-31T07:02:27.005Z,99.69
2022-12-31T07:05:15.298Z,99.65
2022-12-31T07:07:57.505Z,99.87
2022-12-31T07:10:38.099Z,99.61
2022-12-31T07:13:23.823Z,99.99
2022-12-31T07:16:04.321Z,99.99
2022-12-31T07:18:41.338Z,99.99
2022-12-31T07:21:16.203Z,99.48
2022-12-31T07:23:47.063Z,99.67
2022-12-31T07:26:27.872Z,99.58
2022-12-31T07:29:06.484Z,99.77
2022-12-31T07:31:51.947Z,99.47
2022-12-31T07:34:31.095Z,99.14
2022-12-31T07:37:06.784Z,99.25
2022-12-31T07:39:44.817Z,99.30
2022-12-31T07:42:20.477Z,99.01
2022-12-31T07:45:02.609Z,98.72
2022-12-31T07:47:34.622Z,98.73
2022-12-31T07:50:04.274Z,98.92
2022-12-31T07:52:34.903Z,98.93
2022-12-31T07:55:04.227Z,98.68
2022-12-31T07:57:42.348Z,98.50
2022-12-31T08:00:16.315Z,98.41
2022-12-31T08:03:03.093Z,98.42
2022-12-31T08:05:34.798Z,98.15
2022-12-31T08:08:15.222Z,97.77
2022-12-31T08:10:53.010Z,97.36
2022-12-31T08:13:22.376Z,97.21
2022-12-31T08:15:51.373Z,96.54
2022-12-31T08:18:20.314Z,96.06
2022-12-31T08:21:06.784Z,96.32
2022-12-31T08:23:41.811Z,95.94
2022-12-31T08:26:24.308Z,96.01
2022-12-31T08:29:02.869Z,95.34
2022-12-31T08:31:38.211Z,95.40
2022-12-31T08:34:14.545Z,95.81
2022-12-31T08:36:49.734Z,95.53
2022-12-31T08:39:33.930Z,95.29
2022-12-31T08:42:06.307Z,94.20
2022-12-31T08:44:41.376Z,94.34
2022-12-31T08:47:18.167Z,94.30
2022-12-31T08:49:47.004Z,94.71
2022-12-31T08:52:25.441Z,93.67
2022-12-31T08:54:58.237Z,93.87
2022-12-31T08:57:33.860Z,94.15
2022-12-31T09:00:09.065Z,94.64
2022-12-31T09:02:53.533Z,94.40
2022-12-31T09:05:27.175Z,92.81
2022-12-31T09:08:06.097Z,94.64
2022-12-31T09:10:44.269Z,94.02
2022-12-31T09:13:19.433Z,93.25
2022-12-31T09:15:59.747Z,92.86
2022-12-31T09:18:33.156Z,92.50
2022-12-31T09:21:02.036Z,93.01
2022-12-31T09:23:30.729Z,92.87
2022-12-31T09:26:15.687Z,92.40
2022-12-31T09:28:53.392Z,91.95
2022-12-31T09:31:32.857Z,92.53
2022-12-31T09:34:06.678Z,92.14
2022-12-31T09:36:42.911Z,91.77
2022-12-31T09:39:17.029Z,92.01
2022-12-31T09:42:12.897Z,92.12
2022-12-31T09:44:58.097Z,92.22
2022-12-31T09:47:57.777Z,92.41
2022-12-31T09:50:50.832Z,92.63
2022-12-31T09:53:38.405Z,93.05
2022-12-31T09:56:18.426Z,92.05
2022-12-31T09:58:58.631Z,92.27
2022-12-31T10:01:49.785Z,91.60
2022-12-31T10:04:57.359Z,91.72
2022-12-31T10:07:45.984Z,91.34
2022-12-31T10:10:24.013Z,91.61
2022-12-31T10:13:31.858Z,91.74
2022-12-31T10:16:43.768Z,91.41
2022-12-31T10:19:44.424Z,90.98
2022-12-31T10:22:39.585Z,91.10
2022-12-31T10:25:37.888Z,91.07
2022-12-31T10:28:20.421Z,91.54
2022-12-31T10:31:04.646Z,91.03
2022-12-31T10:33:50.583Z,91.00
2022-12-31T10:36:29.067Z,90.66
2022-12-31T10:39:12.837Z,90.68
2022-12-31T10:42:00.372Z,90.33
2022-12-31T10:45:08.440Z,90.58
2022-12-31T10:48:16.271Z,90.75
2022-12-31T10:51:07.871Z,90.72
2022-12-31T10:54:26.034Z,90.33
2022-12-31T10:57:32.566Z,90.70
2022-12-31T11:00:12.695Z,91.30
2022-12-31T11:03:29.552Z,91.72
2022-12-31T11:06:48.322Z,91.76
2022-12-31T11:09:56.112Z,91.67
2022-12-31T11:12:58.321Z,91.95
2022-12-31T11:15:50.274Z,92.29
2022-12-31T11:18:28.357Z,92.01
2022-12-31T11:21:11.771Z,92.20
2022-12-31T11:23:56.594Z,92.45
2022-12-31T11:26:36.411Z,92.68
2022-12-31T11:29:25.678Z,92.18
2022-12-31T11:32:12.043Z,92.27
2022-12-31T11:35:04.646Z,92.10
2022-12-31T11:37:42.058Z,92.01
2022-12-31T11:40:41.441Z,92.12
2022-12-31T11:43:23.835Z,91.98
2022-12-31T11:46:26.789Z,92.00
2022-12-31T11:49:16.619Z,91.74
2022-12-31T11:52:02.368Z,91.86
2022-12-31T11:54:56.855Z,92.33
2022-12-31T11:57:34.169Z,91.96
2022-12-31T12:00:09.755Z,91.83
2022-12-31T12:02:44.371Z,92.20
2022-12-31T12:05:16.880Z,92.40
2022-12-31T12:07:45.752Z,92.00
2022-12-31T12:10:29.128Z,91.88
2022-12-31T12:13:12.709Z,91.85
2022-12-31T12:15:46.181Z,91.75
2022-12-31T12:18:26.071Z,91.26
2022-12-31T12:21:02.320Z,91.37
2022-12-31T12:23:32.879Z,91.45
2022-12-31T12:26:02.690Z,91.14
2022-12-31T12:28:44.428Z,91.72
2022-12-31T12:31:21.233Z,91.71
2022-12-31T12:33:52.583Z,91.15
2022-12-31T12:36:22.584Z,91.48
2022-12-31T12:39:03.102Z,91.65
2022-12-31T12:41:31.846Z,91.59
2022-12-31T12:44:06.674Z,91.29
2022-12-31T12:46:42.591Z,91.09
2022-12-31T12:49:24.069Z,91.39
2022-12-31T12:52:16.966Z,91.90
2022-12-31T12:55:01.272Z,91.54
2022-12-31T12:57:36.113Z,91.34
2022-12-31T13:00:17.273Z,91.14
2022-12-31T13:03:19.891Z,90.62
2022-12-31T13:06:03.193Z,90.31
2022-12-31T13:08:45.617Z,90.44
2022-12-31T13:11:30.587Z,90.58
2022-12-31T13:14:08.692Z,90.51
2022-12-31T13:16:47.429Z,90.90
2022-12-31T13:19:21.276Z,90.58
2022-12-31T13:21:55.763Z,90.79
2022-12-31T13:24:36.780Z,91.02
2022-12-31T13:27:14.279Z,91.13
2022-12-31T13:29:45.569Z,91.14
2022-12-31T13:32:21.074Z,91.05
2022-12-31T13:34:53.328Z,91.05
2022-12-31T13:37:29.116Z,91.07
2022-12-31T13:40:02.920Z,91.24
2022-12-31T13:42:40.688Z,91.42
2022-12-31T13:45:14.782Z,91.14
2022-12-31T13:47:53.072Z,91.60
2022-12-31T13:50:26.494Z,91.30
2022-12-31T13:52:59.764Z,91.47
2022-12-31T13:55:33.962Z,91.83
2022-12-31T13:58:07.907Z,91.87
2022-12-31T14:00:41.533Z,92.04
2022-12-31T14:03:19.933Z,92.03
2022-12-31T14:05:55.125Z,91.83
2022-12-31T14:08:23.809Z,92.02
2022-12-31T14:11:04.255Z,92.58
2022-12-31T14:13:44.872Z,92.43
2022-12-31T14:16:22.484Z,91.83
2022-12-31T14:19:02.234Z,92.20
2022-12-31T14:21:36.364Z,92.15
2022-12-31T14:24:11.706Z,92.43
2022-12-31T14:26:43.226Z,92.31
2022-12-31T14:29:22.207Z,92.20
2022-12-31T14:32:15.525Z,92.32
2022-12-31T14:34:57.239Z,92.24
2022-12-31T14:37:34.421Z,92.62
2022-12-31T14:40:18.704Z,92.68
2022-12-31T14:42:56.974Z,92.89
2022-12-31T14:45:36.546Z,93.09
2022-12-31T14:48:21.569Z,92.88
2022-12-31T14:50:56.129Z,93.00
2022-12-31T14:53:26.698Z,92.95
2022-12-31T14:56:02.058Z,92.96
2022-12-31T14:58:36.312Z,93.01
2022-12-31T15:01:09.030Z,93.33
2022-12-31T15:03:45.037Z,93.46
2022-12-31T15:06:36.353Z,93.49
2022-12-31T15:09:12.749Z,93.52
2022-12-31T15:11:52.657Z,93.91
2022-12-31T15:14:44.187Z,94.02
2022-12-31T15:17:27.697Z,94.00
2022-12-31T15:20:35.457Z,94.30
2022-12-31T15:23:15.906Z,94.75
2022-12-31T15:25:49.624Z,94.86
2022-12-31T15:28:31.771Z,94.97
2022-12-31T15:31:05.783Z,94.70
2022-12-31T15:33:40.388Z,94.87
2022-12-31T15:36:19.286Z,94.60
2022-12-31T15:38:54.067Z,94.17
2022-12-31T15:41:37.470Z,95.20
2022-12-31T15:44:15.023Z,95.22
2022-12-31T15:46:44.630Z,95.37
2022-12-31T15:49:18.346Z,95.43
2022-12-31T15:51:51.803Z,95.16
2022-12-31T15:54:28.963Z,95.18
2022-12-31T15:56:57.755Z,95.15
2022-12-31T15:59:28.399Z,95.04
2022-12-31T16:01:58.565Z,94.96
2022-12-31T16:04:29.969Z,95.37
2022-12-31T16:07:01.455Z,95.43
2022-12-31T16:09:37.012Z,95.65
2022-12-31T16:12:13.011Z,95.68
2022-12-31T16:14:45.952Z,95.72
2022-12-31T16:17:29.594Z,96.02
2022-12-31T16:19:59.862Z,96.45
2022-12-31T16:22:31.240Z,96.28
2022-12-31T16:25:29.622Z,96.35
2022-12-31T16:27:52.148Z,96.54
2022-12-31T16:30:23.326Z,96.32
2022-12-31T16:32:53.357Z,96.92
2022-12-31T16:35:26.464Z,97.67
2022-12-31T16:38:12.371Z,97.54
2022-12-31T16:40:43.596Z,97.93
2022-12-31T16:43:28.305Z,98.55
2022-12-31T16:45:59.127Z,97.25
2022-12-31T16:48:28.086Z,98.03
2022-12-31T16:50:58.120Z,98.12
2022-12-31T16:53:29.982Z,98.12
2022-12-31T16:56:04.746Z,98.39
2022-12-31T16:58:35.856Z,98.45
2022-12-31T17:01:14.419Z,98.43
2022-12-31T17:03:47.673Z,98.58
2022-12-31T17:06:18.109Z,98.54
2022-12-31T17:08:50.601Z,98.01
2022-12-31T17:11:24.116Z,98.27
2022-12-31T17:14:02.003Z,99.84
2022-12-31T17:16:30.605Z,99.99
2022-12-31T17:18:59.487Z,98.41
2022-12-31T17:21:30.010Z,99.10
2022-12-31T17:24:04.428Z,98.93
2022-12-31T17:26:38.464Z,98.44
2022-12-31T17:29:08.806Z,98.64
2022-12-31T17:31:38.499Z,98.64
2022-12-31T17:34:24.316Z,99.05
2022-12-31T17:37:05.271Z,99.02
2022-12-31T17:39:51.100Z,98.88
2022-12-31T17:42:29.153Z,98.60
2022-12-31T17:45:03.330Z,98.85
2022-12-31T17:47:37.347Z,99.24
2022-12-31T17:50:17.579Z,99.06
2022-12-31T17:52:46.427Z,99.25
2022-12-31T17:55:15.000Z,99.26
2022-12-31T17:57:52.270Z,99.08
2022-12-31T18:00:22.760Z,99.55
2022-12-31T18:02:51.978Z,99.37
2022-12-31T18:05:25.596Z,99.28
2022-12-31T18:07:54.709Z,98.62
2022-12-31T18:10:25.518Z,99.69
2022-12-31T18:12:55.743Z,99.99
2022-12-31T18:15:26.469Z,99.99
2022-12-31T18:17:54.994Z,99.99
2022-12-31T18:20:25.039Z,99.99
2022-12-31T18:22:53.993Z,99.99
2022-12-31T18:25:24.420Z,99.99
2022-12-31T18:27:54.848Z,99.99
2022-12-31T18:30:23.735Z,99.99
2022-12-31T18:32:52.404Z,99.48
2022-12-31T18:38:15.936Z,99.20
2022-12-31T18:40:49.960Z,99.90
2022-12-31T18:43:22.673Z,99.99
2022-12-31T18:45:53.339Z,99.99
2022-12-31T18:48:21.653Z,99.87
2022-12-31T18:50:50.567Z,99.71
2022-12-31T18:53:22.726Z,99.61
2022-12-31T18:55:53.847Z,99.63
2022-12-31T18:58:26.309Z,99.63
2022-12-31T19:00:54.634Z,99.64
2022-12-31T19:03:28.374Z,99.46
2022-12-31T19:05:56.669Z,99.78
2022-12-31T19:08:25.021Z,99.99
2022-12-31T19:10:54.126Z,99.99
2022-12-31T19:13:25.100Z,99.99
2022-12-31T19:16:01.187Z,99.99
2022-12-31T19:18:29.476Z,99.99
2022-12-31T19:20:58.180Z,99.99
2022-12-31T19:23:26.891Z,99.99
2022-12-31T19:25:55.978Z,99.99
2022-12-31T19:28:27.982Z,99.99
2022-12-31T19:30:56.430Z,99.99
2022-12-31T19:33:24.794Z,99.99
2022-12-31T19:35:53.422Z,99.99
2022-12-31T19:38:24.339Z,99.99
2022-12-31T19:40:54.401Z,99.99
2022-12-31T19:43:24.871Z,99.99
2022-12-31T19:45:55.019Z,98.86
2022-12-31T19:48:32.346Z,99.71
2022-12-31T19:51:02.217Z,99.99
2022-12-31T19:53:30.658Z,99.75
2022-12-31T19:56:02.448Z,99.69
2022-12-31T19:58:31.188Z,99.99
2022-12-31T20:01:03.099Z,99.99
2022-12-31T20:03:32.934Z,99.99
2022-12-31T20:06:07.555Z,99.99
2022-12-31T20:08:36.676Z,99.99
2022-12-31T20:11:13.014Z,99.99
2022-12-31T20:13:42.349Z,99.99
2022-12-31T20:16:15.610Z,99.99
2022-12-31T20:18:48.387Z,99.99
2022-12-31T20:21:19.382Z,99.99
2022-12-31T20:23:48.901Z,99.99
2022-12-31T20:26:17.985Z,99.99
2022-12-31T20:28:48.134Z,99.99
2022-12-31T20:31:20.911Z,99.99
2022-12-31T20:33:49.548Z,99.99
2022-12-31T20:36:19.237Z,99.99
2022-12-31T20:38:48.547Z,99.99
2022-12-31T20:41:18.410Z,99.99
2022-12-31T20:43:47.609Z,99.99
2022-12-31T20:46:19.891Z,99.99
2022-12-31T20:48:49.693Z,99.99
2022-12-31T20:51:19.721Z,99.99
2022-12-31T20:53:49.523Z,99.99
2022-12-31T20:56:18.729Z,99.99
2022-12-31T20:58:48.401Z,99.99
2022-12-31T21:01:20.856Z,99.99
2022-12-31T21:04:04.865Z,99.99
2022-12-31T21:06:36.568Z,99.99
2022-12-31T21:09:07.299Z,99.99
2022-12-31T21:11:53.493Z,99.99
2022-12-31T21:14:22.710Z,99.99
2022-12-31T21:16:52.302Z,99.99
2022-12-31T21:19:20.815Z,99.99
2022-12-31T21:21:49.848Z,99.99
2022-12-31T21:24:23.624Z,99.99
2022-12-31T21:26:56.179Z,99.99
2022-12-31T21:29:24.509Z,99.99
2022-12-31T21:31:55.048Z,99.99
2022-12-31T21:34:23.528Z,99.99
2022-12-31T21:36:53.585Z,99.99
2022-12-31T21:39:22.477Z,99.99
2022-12-31T21:41:53.507Z,99.99
2022-12-31T21:44:28.469Z,99.99
2022-12-31T21:47:35.354Z,99.99
2022-12-31T21:50:06.212Z,99.99
2022-12-31T21:52:35.875Z,99.99
2022-12-31T21:55:23.261Z,99.99
2022-12-31T21:58:24.899Z,99.99
2022-12-31T22:00:58.839Z,99.99
2022-12-31T22:03:32.035Z,99.99
2022-12-31T22:06:02.943Z,99.99
2022-12-31T22:08:32.156Z,99.99
2022-12-31T22:11:00.848Z,99.99
2022-12-31T22:13:29.759Z,99.99
2022-12-31T22:16:04.843Z,99.99
2022-12-31T22:18:41.485Z,99.99
2022-12-31T22:21:18.414Z,99.99
2022-12-31T22:23:49.472Z,99.99
2022-12-31T22:26:19.978Z,99.99
2022-12-31T22:28:48.862Z,99.99
2022-12-31T22:31:20.643Z,99.99
2022-12-31T22:33:50.496Z,99.99
2022-12-31T22:36:21.484Z,99.99
2022-12-31T22:38:51.403Z,99.99
2022-12-31T22:41:21.988Z,99.99
2022-12-31T22:43:55.989Z,99.99
2022-12-31T22:46:30.821Z,99.99
2022-12-31T22:49:03.781Z,99.99
2022-12-31T22:51:54.723Z,99.99
2022-12-31T22:54:22.899Z,99.99
2022-12-31T22:56:51.236Z,99.99
2022-12-31T22:59:19.831Z,99.99
2022-12-31T23:01:48.754Z,99.99
2022-12-31T23:04:18.370Z,99.99
2022-12-31T23:06:47.220Z,99.99
2022-12-31T23:09:35.592Z,99.99
2022-12-31T23:12:06.890Z,99.99
2022-12-31T23:14:53.214Z,99.99
2022-12-31T23:17:43.508Z,99.99
2022-12-31T23:20:33.682Z,99.99
2022-12-31T23:23:11.806Z,99.99
2022-12-31T23:25:42.697Z,99.99
2022-12-31T23:28:13.817Z,99.99
2022-12-31T23:30:43.447Z,99.99
2022-12-31T23:33:16.146Z,99.99
2022-12-31T23:35:46.270Z,99.99
2022-12-31T23:38:17.140Z,99.99
2022-12-31T23:40:45.809Z,99.99
2022-12-31T23:43:20.832Z,99.99
2022-12-31T23:45:50.354Z,99.99
2022-12-31T23:48:18.696Z,99.99
2022-12-31T23:50:54.000Z,99.99
2022-12-31T23:53:23.288Z,99.99
2022-12-31T23:55:55.937Z,99.99
2022-12-31T23:58:24.539Z,99.99
